sensor_id;sensor_type;location;lat;lon;timestamp;P1;durP1;ratioP1;P2;durP2;ratioP2
19780;SDS011;10050;55.492;13.506;2023-06-26T00:00:41;5.03;;;4.63;;
19780;SDS011;10050;55.492;13.506;2023-06-26T00:03:06;5.27;;;4.87;;
19780;SDS011;10050;55.492;13.506;2023-06-26T00:05:32;5.30;;;4.87;;
19780;SDS011;10050;55.492;13.506;2023-06-26T00:07:59;5.23;;;4.77;;
19780;SDS011;10050;55.492;13.506;2023-06-26T00:10:25;4.70;;;4.20;;
19780;SDS011;10050;55.492;13.506;2023-06-26T00:12:52;5.30;;;4.80;;
19780;SDS011;10050;55.492;13.506;2023-06-26T00:15:18;5.30;;;4.90;;
19780;SDS011;10050;55.492;13.506;2023-06-26T00:17:44;5.17;;;4.70;;
19780;SDS011;10050;55.492;13.506;2023-06-26T00:20:10;5.10;;;4.60;;
19780;SDS011;10050;55.492;13.506;2023-06-26T00:22:36;4.93;;;4.40;;
19780;SDS011;10050;55.492;13.506;2023-06-26T00:25:05;4.73;;;4.33;;
19780;SDS011;10050;55.492;13.506;2023-06-26T00:27:31;4.50;;;4.10;;
19780;SDS011;10050;55.492;13.506;2023-06-26T00:29:57;5.53;;;5.03;;
19780;SDS011;10050;55.492;13.506;2023-06-26T00:32:23;10.57;;;5.37;;
19780;SDS011;10050;55.492;13.506;2023-06-26T00:34:48;4.87;;;4.47;;
19780;SDS011;10050;55.492;13.506;2023-06-26T00:37:14;4.97;;;4.50;;
19780;SDS011;10050;55.492;13.506;2023-06-26T00:39:39;5.20;;;4.70;;
19780;SDS011;10050;55.492;13.506;2023-06-26T00:42:05;5.57;;;4.67;;
19780;SDS011;10050;55.492;13.506;2023-06-26T00:44:31;5.03;;;4.63;;
19780;SDS011;10050;55.492;13.506;2023-06-26T00:46:57;5.20;;;4.80;;
19780;SDS011;10050;55.492;13.506;2023-06-26T00:49:23;7.67;;;5.40;;
19780;SDS011;10050;55.492;13.506;2023-06-26T00:51:49;5.73;;;5.23;;
19780;SDS011;10050;55.492;13.506;2023-06-26T00:54:15;5.63;;;4.93;;
19780;SDS011;10050;55.492;13.506;2023-06-26T00:56:45;5.60;;;5.10;;
19780;SDS011;10050;55.492;13.506;2023-06-26T00:59:11;5.50;;;5.00;;
19780;SDS011;10050;55.492;13.506;2023-06-26T01:01:37;6.07;;;4.93;;
19780;SDS011;10050;55.492;13.506;2023-06-26T01:04:02;5.50;;;4.83;;
19780;SDS011;10050;55.492;13.506;2023-06-26T01:06:28;5.27;;;4.83;;
19780;SDS011;10050;55.492;13.506;2023-06-26T01:09:00;6.83;;;5.43;;
19780;SDS011;10050;55.492;13.506;2023-06-26T01:11:27;5.33;;;4.80;;
19780;SDS011;10050;55.492;13.506;2023-06-26T01:13:53;5.60;;;5.20;;
19780;SDS011;10050;55.492;13.506;2023-06-26T01:16:20;5.60;;;4.73;;
19780;SDS011;10050;55.492;13.506;2023-06-26T01:18:48;5.97;;;5.47;;
19780;SDS011;10050;55.492;13.506;2023-06-26T01:21:14;5.07;;;4.67;;
19780;SDS011;10050;55.492;13.506;2023-06-26T01:26:32;6.00;;;5.13;;
19780;SDS011;10050;55.492;13.506;2023-06-26T01:29:00;5.83;;;5.33;;
19780;SDS011;10050;55.492;13.506;2023-06-26T01:31:27;6.90;;;5.40;;
19780;SDS011;10050;55.492;13.506;2023-06-26T01:33:55;5.87;;;5.30;;
19780;SDS011;10050;55.492;13.506;2023-06-26T01:36:25;5.80;;;5.30;;
19780;SDS011;10050;55.492;13.506;2023-06-26T01:38:52;4.90;;;4.50;;
19780;SDS011;10050;55.492;13.506;2023-06-26T01:41:18;6.00;;;5.40;;
19780;SDS011;10050;55.492;13.506;2023-06-26T01:46:40;5.23;;;4.73;;
19780;SDS011;10050;55.492;13.506;2023-06-26T01:54:58;5.57;;;5.07;;
19780;SDS011;10050;55.492;13.506;2023-06-26T01:57:27;5.00;;;4.60;;
19780;SDS011;10050;55.492;13.506;2023-06-26T01:59:56;5.93;;;5.33;;
19780;SDS011;10050;55.492;13.506;2023-06-26T02:02:24;5.53;;;5.03;;
19780;SDS011;10050;55.492;13.506;2023-06-26T02:04:50;5.87;;;5.37;;
19780;SDS011;10050;55.492;13.506;2023-06-26T02:07:16;5.50;;;5.00;;
19780;SDS011;10050;55.492;13.506;2023-06-26T02:09:41;5.53;;;5.03;;
19780;SDS011;10050;55.492;13.506;2023-06-26T02:12:08;5.77;;;5.27;;
19780;SDS011;10050;55.492;13.506;2023-06-26T02:14:34;4.97;;;4.57;;
19780;SDS011;10050;55.492;13.506;2023-06-26T02:16:59;5.53;;;5.07;;
19780;SDS011;10050;55.492;13.506;2023-06-26T02:19:25;5.10;;;4.50;;
19780;SDS011;10050;55.492;13.506;2023-06-26T02:21:52;5.80;;;5.30;;
19780;SDS011;10050;55.492;13.506;2023-06-26T02:24:21;6.77;;;5.17;;
19780;SDS011;10050;55.492;13.506;2023-06-26T02:26:46;5.33;;;4.83;;
19780;SDS011;10050;55.492;13.506;2023-06-26T02:29:14;5.23;;;4.73;;
19780;SDS011;10050;55.492;13.506;2023-06-26T02:31:39;5.87;;;5.37;;
19780;SDS011;10050;55.492;13.506;2023-06-26T02:34:05;5.73;;;5.23;;
19780;SDS011;10050;55.492;13.506;2023-06-26T02:36:31;5.10;;;4.70;;
19780;SDS011;10050;55.492;13.506;2023-06-26T02:38:57;5.37;;;4.87;;
19780;SDS011;10050;55.492;13.506;2023-06-26T02:41:22;5.73;;;5.23;;
19780;SDS011;10050;55.492;13.506;2023-06-26T02:43:48;6.43;;;5.70;;
19780;SDS011;10050;55.492;13.506;2023-06-26T02:46:13;5.57;;;4.80;;
19780;SDS011;10050;55.492;13.506;2023-06-26T02:48:39;6.13;;;5.63;;
19780;SDS011;10050;55.492;13.506;2023-06-26T02:51:05;6.73;;;6.13;;
19780;SDS011;10050;55.492;13.506;2023-06-26T02:53:31;5.93;;;5.43;;
19780;SDS011;10050;55.492;13.506;2023-06-26T02:55:56;6.23;;;5.63;;
19780;SDS011;10050;55.492;13.506;2023-06-26T02:58:22;5.97;;;5.47;;
19780;SDS011;10050;55.492;13.506;2023-06-26T03:00:47;8.33;;;6.37;;
19780;SDS011;10050;55.492;13.506;2023-06-26T03:03:13;5.77;;;5.30;;
19780;SDS011;10050;55.492;13.506;2023-06-26T03:05:39;7.03;;;6.43;;
19780;SDS011;10050;55.492;13.506;2023-06-26T03:08:05;6.80;;;6.20;;
19780;SDS011;10050;55.492;13.506;2023-06-26T03:10:30;8.23;;;6.00;;
19780;SDS011;10050;55.492;13.506;2023-06-26T03:12:56;10.23;;;6.87;;
19780;SDS011;10050;55.492;13.506;2023-06-26T03:15:22;17.63;;;11.83;;
19780;SDS011;10050;55.492;13.506;2023-06-26T03:17:47;19.63;;;12.57;;
19780;SDS011;10050;55.492;13.506;2023-06-26T03:20:13;24.70;;;14.63;;
19780;SDS011;10050;55.492;13.506;2023-06-26T03:22:38;28.60;;;18.40;;
19780;SDS011;10050;55.492;13.506;2023-06-26T03:25:04;26.97;;;16.97;;
19780;SDS011;10050;55.492;13.506;2023-06-26T03:27:30;30.07;;;17.13;;
19780;SDS011;10050;55.492;13.506;2023-06-26T03:29:55;28.20;;;18.00;;
19780;SDS011;10050;55.492;13.506;2023-06-26T03:32:21;30.20;;;20.00;;
19780;SDS011;10050;55.492;13.506;2023-06-26T03:34:47;28.77;;;18.00;;
19780;SDS011;10050;55.492;13.506;2023-06-26T03:37:12;29.27;;;19.90;;
19780;SDS011;10050;55.492;13.506;2023-06-26T03:39:38;25.23;;;17.90;;
19780;SDS011;10050;55.492;13.506;2023-06-26T03:42:04;24.27;;;17.20;;
19780;SDS011;10050;55.492;13.506;2023-06-26T03:44:29;22.03;;;16.53;;
19780;SDS011;10050;55.492;13.506;2023-06-26T03:46:55;24.07;;;14.03;;
19780;SDS011;10050;55.492;13.506;2023-06-26T03:49:21;16.23;;;13.93;;
19780;SDS011;10050;55.492;13.506;2023-06-26T03:51:46;16.07;;;12.87;;
19780;SDS011;10050;55.492;13.506;2023-06-26T03:54:12;16.80;;;14.23;;
19780;SDS011;10050;55.492;13.506;2023-06-26T03:56:38;16.07;;;12.33;;
19780;SDS011;10050;55.492;13.506;2023-06-26T03:59:03;16.50;;;13.97;;
19780;SDS011;10050;55.492;13.506;2023-06-26T04:01:29;15.90;;;13.10;;
19780;SDS011;10050;55.492;13.506;2023-06-26T04:03:54;16.83;;;14.17;;
19780;SDS011;10050;55.492;13.506;2023-06-26T04:06:20;19.00;;;14.93;;
19780;SDS011;10050;55.492;13.506;2023-06-26T04:08:46;19.93;;;14.53;;
19780;SDS011;10050;55.492;13.506;2023-06-26T04:11:11;18.43;;;14.03;;
19780;SDS011;10050;55.492;13.506;2023-06-26T04:13:37;20.83;;;16.17;;
19780;SDS011;10050;55.492;13.506;2023-06-26T04:16:02;17.00;;;15.17;;
19780;SDS011;10050;55.492;13.506;2023-06-26T04:18:28;19.03;;;14.73;;
19780;SDS011;10050;55.492;13.506;2023-06-26T04:21:05;18.73;;;14.73;;
19780;SDS011;10050;55.492;13.506;2023-06-26T04:23:36;17.20;;;12.70;;
19780;SDS011;10050;55.492;13.506;2023-06-26T04:26:03;18.60;;;14.63;;
19780;SDS011;10050;55.492;13.506;2023-06-26T04:28:30;23.90;;;17.73;;
19780;SDS011;10050;55.492;13.506;2023-06-26T04:30:57;14.93;;;13.33;;
19780;SDS011;10050;55.492;13.506;2023-06-26T04:33:23;17.03;;;13.43;;
19780;SDS011;10050;55.492;13.506;2023-06-26T04:35:50;20.97;;;16.13;;
19780;SDS011;10050;55.492;13.506;2023-06-26T04:38:16;22.07;;;16.80;;
19780;SDS011;10050;55.492;13.506;2023-06-26T04:40:42;19.70;;;16.17;;
19780;SDS011;10050;55.492;13.506;2023-06-26T04:43:07;20.30;;;17.67;;
19780;SDS011;10050;55.492;13.506;2023-06-26T04:45:33;22.07;;;18.23;;
19780;SDS011;10050;55.492;13.506;2023-06-26T04:47:59;20.40;;;17.57;;
19780;SDS011;10050;55.492;13.506;2023-06-26T04:50:27;24.00;;;18.07;;
19780;SDS011;10050;55.492;13.506;2023-06-26T04:52:54;21.37;;;17.23;;
19780;SDS011;10050;55.492;13.506;2023-06-26T04:55:20;21.00;;;17.60;;
19780;SDS011;10050;55.492;13.506;2023-06-26T04:57:46;21.10;;;16.40;;
19780;SDS011;10050;55.492;13.506;2023-06-26T05:00:12;18.10;;;15.80;;
19780;SDS011;10050;55.492;13.506;2023-06-26T05:02:38;20.03;;;16.47;;
19780;SDS011;10050;55.492;13.506;2023-06-26T05:05:04;20.63;;;17.10;;
19780;SDS011;10050;55.492;13.506;2023-06-26T05:07:30;21.10;;;17.73;;
19780;SDS011;10050;55.492;13.506;2023-06-26T05:09:55;21.60;;;18.13;;
19780;SDS011;10050;55.492;13.506;2023-06-26T05:12:21;19.37;;;16.63;;
19780;SDS011;10050;55.492;13.506;2023-06-26T05:14:47;19.90;;;16.07;;
19780;SDS011;10050;55.492;13.506;2023-06-26T05:17:15;19.97;;;16.77;;
19780;SDS011;10050;55.492;13.506;2023-06-26T05:19:41;16.87;;;15.00;;
19780;SDS011;10050;55.492;13.506;2023-06-26T05:22:07;17.30;;;14.37;;
19780;SDS011;10050;55.492;13.506;2023-06-26T05:24:34;15.17;;;13.60;;
19780;SDS011;10050;55.492;13.506;2023-06-26T05:27:01;15.33;;;12.73;;
19780;SDS011;10050;55.492;13.506;2023-06-26T05:29:27;12.17;;;10.63;;
19780;SDS011;10050;55.492;13.506;2023-06-26T05:31:54;10.20;;;9.17;;
19780;SDS011;10050;55.492;13.506;2023-06-26T05:34:22;11.90;;;8.90;;
19780;SDS011;10050;55.492;13.506;2023-06-26T05:36:52;9.37;;;8.57;;
19780;SDS011;10050;55.492;13.506;2023-06-26T05:39:22;9.63;;;8.63;;
19780;SDS011;10050;55.492;13.506;2023-06-26T05:41:49;8.40;;;6.97;;
19780;SDS011;10050;55.492;13.506;2023-06-26T05:44:15;12.43;;;7.87;;
19780;SDS011;10050;55.492;13.506;2023-06-26T05:46:41;9.03;;;8.10;;
19780;SDS011;10050;55.492;13.506;2023-06-26T05:49:07;9.00;;;7.20;;
19780;SDS011;10050;55.492;13.506;2023-06-26T05:51:32;6.60;;;6.00;;
19780;SDS011;10050;55.492;13.506;2023-06-26T05:53:58;8.17;;;6.20;;
19780;SDS011;10050;55.492;13.506;2023-06-26T05:56:24;15.07;;;7.07;;
19780;SDS011;10050;55.492;13.506;2023-06-26T05:58:51;8.47;;;5.90;;
19780;SDS011;10050;55.492;13.506;2023-06-26T06:01:17;6.63;;;5.93;;
19780;SDS011;10050;55.492;13.506;2023-06-26T06:03:43;7.80;;;5.80;;
19780;SDS011;10050;55.492;13.506;2023-06-26T06:06:09;6.20;;;5.37;;
19780;SDS011;10050;55.492;13.506;2023-06-26T06:08:35;6.87;;;4.80;;
19780;SDS011;10050;55.492;13.506;2023-06-26T06:11:01;5.03;;;4.53;;
19780;SDS011;10050;55.492;13.506;2023-06-26T06:13:27;7.17;;;5.20;;
19780;SDS011;10050;55.492;13.506;2023-06-26T06:15:53;8.67;;;5.40;;
19780;SDS011;10050;55.492;13.506;2023-06-26T06:18:19;5.70;;;4.87;;
19780;SDS011;10050;55.492;13.506;2023-06-26T06:20:45;6.67;;;4.97;;
19780;SDS011;10050;55.492;13.506;2023-06-26T06:23:11;5.60;;;4.90;;
19780;SDS011;10050;55.492;13.506;2023-06-26T06:25:36;7.33;;;4.60;;
19780;SDS011;10050;55.492;13.506;2023-06-26T06:28:03;5.10;;;4.60;;
19780;SDS011;10050;55.492;13.506;2023-06-26T06:30:29;6.07;;;4.13;;
19780;SDS011;10050;55.492;13.506;2023-06-26T06:32:55;5.50;;;5.00;;
19780;SDS011;10050;55.492;13.506;2023-06-26T06:35:20;5.07;;;4.10;;
19780;SDS011;10050;55.492;13.506;2023-06-26T06:37:46;6.60;;;4.57;;
19780;SDS011;10050;55.492;13.506;2023-06-26T06:40:12;5.03;;;4.57;;
19780;SDS011;10050;55.492;13.506;2023-06-26T06:42:37;7.77;;;4.47;;
19780;SDS011;10050;55.492;13.506;2023-06-26T06:45:03;6.27;;;4.47;;
19780;SDS011;10050;55.492;13.506;2023-06-26T06:47:29;8.93;;;4.53;;
19780;SDS011;10050;55.492;13.506;2023-06-26T06:49:56;6.07;;;4.57;;
19780;SDS011;10050;55.492;13.506;2023-06-26T06:52:22;4.53;;;3.93;;
19780;SDS011;10050;55.492;13.506;2023-06-26T06:54:55;8.07;;;4.90;;
19780;SDS011;10050;55.492;13.506;2023-06-26T06:57:24;4.50;;;4.07;;
19780;SDS011;10050;55.492;13.506;2023-06-26T06:59:50;3.27;;;3.07;;
19780;SDS011;10050;55.492;13.506;2023-06-26T07:02:18;3.97;;;3.67;;
19780;SDS011;10050;55.492;13.506;2023-06-26T07:04:44;4.50;;;4.13;;
19780;SDS011;10050;55.492;13.506;2023-06-26T07:07:11;8.27;;;4.30;;
19780;SDS011;10050;55.492;13.506;2023-06-26T07:09:38;3.87;;;2.83;;
19780;SDS011;10050;55.492;13.506;2023-06-26T07:12:04;3.93;;;3.63;;
19780;SDS011;10050;55.492;13.506;2023-06-26T07:14:30;5.37;;;3.50;;
19780;SDS011;10050;55.492;13.506;2023-06-26T07:16:55;3.40;;;3.10;;
19780;SDS011;10050;55.492;13.506;2023-06-26T07:19:21;5.00;;;3.30;;
19780;SDS011;10050;55.492;13.506;2023-06-26T07:21:47;3.33;;;3.03;;
19780;SDS011;10050;55.492;13.506;2023-06-26T07:24:12;3.17;;;2.87;;
19780;SDS011;10050;55.492;13.506;2023-06-26T07:26:38;3.63;;;3.33;;
19780;SDS011;10050;55.492;13.506;2023-06-26T07:29:03;3.07;;;2.77;;
19780;SDS011;10050;55.492;13.506;2023-06-26T07:31:30;3.83;;;2.80;;
19780;SDS011;10050;55.492;13.506;2023-06-26T07:33:55;3.40;;;3.10;;
19780;SDS011;10050;55.492;13.506;2023-06-26T07:36:23;2.90;;;2.77;;
19780;SDS011;10050;55.492;13.506;2023-06-26T07:38:49;2.93;;;2.73;;
19780;SDS011;10050;55.492;13.506;2023-06-26T07:41:14;3.00;;;2.70;;
19780;SDS011;10050;55.492;13.506;2023-06-26T07:43:40;2.70;;;2.50;;
19780;SDS011;10050;55.492;13.506;2023-06-26T07:46:05;3.57;;;2.90;;
19780;SDS011;10050;55.492;13.506;2023-06-26T07:48:31;3.10;;;2.83;;
19780;SDS011;10050;55.492;13.506;2023-06-26T07:50:57;3.00;;;2.80;;
19780;SDS011;10050;55.492;13.506;2023-06-26T07:53:22;3.57;;;2.37;;
19780;SDS011;10050;55.492;13.506;2023-06-26T07:55:48;2.70;;;2.50;;
19780;SDS011;10050;55.492;13.506;2023-06-26T07:58:13;2.70;;;2.50;;
19780;SDS011;10050;55.492;13.506;2023-06-26T08:00:39;3.40;;;3.10;;
19780;SDS011;10050;55.492;13.506;2023-06-26T08:03:05;5.70;;;3.30;;
19780;SDS011;10050;55.492;13.506;2023-06-26T08:05:31;5.33;;;3.10;;
19780;SDS011;10050;55.492;13.506;2023-06-26T08:07:57;4.23;;;3.80;;
19780;SDS011;10050;55.492;13.506;2023-06-26T08:10:23;3.23;;;2.93;;
19780;SDS011;10050;55.492;13.506;2023-06-26T08:12:49;3.97;;;3.57;;
19780;SDS011;10050;55.492;13.506;2023-06-26T08:15:15;3.90;;;3.00;;
19780;SDS011;10050;55.492;13.506;2023-06-26T08:17:41;5.20;;;4.10;;
19780;SDS011;10050;55.492;13.506;2023-06-26T08:20:07;6.37;;;3.30;;
19780;SDS011;10050;55.492;13.506;2023-06-26T08:22:33;3.80;;;3.50;;
19780;SDS011;10050;55.492;13.506;2023-06-26T08:25:02;6.40;;;3.40;;
19780;SDS011;10050;55.492;13.506;2023-06-26T08:27:29;10.47;;;3.70;;
19780;SDS011;10050;55.492;13.506;2023-06-26T08:29:54;5.90;;;3.90;;
19780;SDS011;10050;55.492;13.506;2023-06-26T08:32:20;3.93;;;3.53;;
19780;SDS011;10050;55.492;13.506;2023-06-26T08:34:45;5.77;;;3.63;;
19780;SDS011;10050;55.492;13.506;2023-06-26T08:37:11;3.40;;;3.20;;
19780;SDS011;10050;55.492;13.506;2023-06-26T08:39:37;5.73;;;3.63;;
19780;SDS011;10050;55.492;13.506;2023-06-26T08:42:02;3.97;;;3.63;;
19780;SDS011;10050;55.492;13.506;2023-06-26T08:44:28;6.10;;;3.60;;
19780;SDS011;10050;55.492;13.506;2023-06-26T08:46:54;4.63;;;3.60;;
19780;SDS011;10050;55.492;13.506;2023-06-26T08:49:37;3.63;;;3.27;;
19780;SDS011;10050;55.492;13.506;2023-06-26T08:52:28;6.37;;;3.10;;
19780;SDS011;10050;55.492;13.506;2023-06-26T08:54:57;3.90;;;3.47;;
19780;SDS011;10050;55.492;13.506;2023-06-26T08:57:23;6.23;;;3.80;;
19780;SDS011;10050;55.492;13.506;2023-06-26T08:59:51;4.83;;;3.10;;
19780;SDS011;10050;55.492;13.506;2023-06-26T09:02:17;3.77;;;3.47;;
19780;SDS011;10050;55.492;13.506;2023-06-26T09:04:47;5.17;;;3.30;;
19780;SDS011;10050;55.492;13.506;2023-06-26T09:07:16;3.83;;;3.43;;
19780;SDS011;10050;55.492;13.506;2023-06-26T09:09:42;3.77;;;3.33;;
19780;SDS011;10050;55.492;13.506;2023-06-26T09:12:08;4.17;;;3.10;;
19780;SDS011;10050;55.492;13.506;2023-06-26T09:14:35;4.23;;;3.30;;
19780;SDS011;10050;55.492;13.506;2023-06-26T09:17:02;7.50;;;3.07;;
19780;SDS011;10050;55.492;13.506;2023-06-26T09:19:28;6.53;;;3.17;;
19780;SDS011;10050;55.492;13.506;2023-06-26T09:21:54;6.73;;;3.63;;
19780;SDS011;10050;55.492;13.506;2023-06-26T09:24:20;3.23;;;3.03;;
19780;SDS011;10050;55.492;13.506;2023-06-26T09:26:47;3.27;;;2.97;;
19780;SDS011;10050;55.492;13.506;2023-06-26T09:29:13;6.50;;;3.00;;
19780;SDS011;10050;55.492;13.506;2023-06-26T09:31:40;5.07;;;3.10;;
19780;SDS011;10050;55.492;13.506;2023-06-26T09:34:06;3.20;;;2.90;;
19780;SDS011;10050;55.492;13.506;2023-06-26T09:36:32;6.63;;;3.10;;
19780;SDS011;10050;55.492;13.506;2023-06-26T09:39:08;6.07;;;3.10;;
19780;SDS011;10050;55.492;13.506;2023-06-26T09:41:36;4.33;;;2.73;;
19780;SDS011;10050;55.492;13.506;2023-06-26T09:44:03;4.10;;;3.10;;
19780;SDS011;10050;55.492;13.506;2023-06-26T09:46:30;3.53;;;3.10;;
19780;SDS011;10050;55.492;13.506;2023-06-26T09:49:03;5.53;;;2.83;;
19780;SDS011;10050;55.492;13.506;2023-06-26T09:51:31;3.93;;;3.07;;
19780;SDS011;10050;55.492;13.506;2023-06-26T09:53:57;5.80;;;2.90;;
19780;SDS011;10050;55.492;13.506;2023-06-26T09:56:27;2.50;;;2.30;;
19780;SDS011;10050;55.492;13.506;2023-06-26T09:58:57;3.43;;;2.97;;
19780;SDS011;10050;55.492;13.506;2023-06-26T10:01:25;2.90;;;2.60;;
19780;SDS011;10050;55.492;13.506;2023-06-26T10:03:51;4.13;;;2.53;;
19780;SDS011;10050;55.492;13.506;2023-06-26T10:06:28;3.57;;;2.60;;
19780;SDS011;10050;55.492;13.506;2023-06-26T10:08:59;3.60;;;3.30;;
19780;SDS011;10050;55.492;13.506;2023-06-26T10:11:26;2.83;;;2.60;;
19780;SDS011;10050;55.492;13.506;2023-06-26T10:13:59;3.17;;;2.90;;
19780;SDS011;10050;55.492;13.506;2023-06-26T10:16:28;3.87;;;2.70;;
19780;SDS011;10050;55.492;13.506;2023-06-26T10:18:58;6.77;;;3.17;;
19780;SDS011;10050;55.492;13.506;2023-06-26T10:21:28;9.17;;;3.07;;
19780;SDS011;10050;55.492;13.506;2023-06-26T10:23:56;3.50;;;3.20;;
19780;SDS011;10050;55.492;13.506;2023-06-26T10:26:22;4.83;;;3.27;;
19780;SDS011;10050;55.492;13.506;2023-06-26T10:28:51;3.00;;;2.80;;
19780;SDS011;10050;55.492;13.506;2023-06-26T10:31:22;2.73;;;2.53;;
19780;SDS011;10050;55.492;13.506;2023-06-26T10:33:51;3.43;;;2.70;;
19780;SDS011;10050;55.492;13.506;2023-06-26T10:36:26;7.23;;;2.60;;
19780;SDS011;10050;55.492;13.506;2023-06-26T10:39:03;5.47;;;2.93;;
19780;SDS011;10050;55.492;13.506;2023-06-26T10:41:41;3.93;;;2.93;;
19780;SDS011;10050;55.492;13.506;2023-06-26T10:46:52;6.70;;;3.03;;
19780;SDS011;10050;55.492;13.506;2023-06-26T10:49:27;3.43;;;3.10;;
19780;SDS011;10050;55.492;13.506;2023-06-26T10:51:55;3.27;;;2.90;;
19780;SDS011;10050;55.492;13.506;2023-06-26T10:54:23;10.37;;;3.87;;
19780;SDS011;10050;55.492;13.506;2023-06-26T10:56:55;3.90;;;3.33;;
19780;SDS011;10050;55.492;13.506;2023-06-26T10:59:24;4.03;;;3.20;;
19780;SDS011;10050;55.492;13.506;2023-06-26T11:01:57;3.60;;;3.30;;
19780;SDS011;10050;55.492;13.506;2023-06-26T11:10:00;5.47;;;3.30;;
19780;SDS011;10050;55.492;13.506;2023-06-26T11:12:35;4.53;;;3.03;;
19780;SDS011;10050;55.492;13.506;2023-06-26T11:15:13;4.90;;;3.03;;
19780;SDS011;10050;55.492;13.506;2023-06-26T11:17:41;6.87;;;3.27;;
19780;SDS011;10050;55.492;13.506;2023-06-26T11:20:08;6.53;;;3.60;;
19780;SDS011;10050;55.492;13.506;2023-06-26T11:22:36;3.40;;;3.10;;
19780;SDS011;10050;55.492;13.506;2023-06-26T11:25:02;8.70;;;3.90;;
19780;SDS011;10050;55.492;13.506;2023-06-26T11:30:02;3.47;;;2.83;;
19780;SDS011;10050;55.492;13.506;2023-06-26T11:32:30;3.40;;;3.03;;
19780;SDS011;10050;55.492;13.506;2023-06-26T11:34:57;7.30;;;3.90;;
19780;SDS011;10050;55.492;13.506;2023-06-26T11:37:23;5.10;;;3.60;;
19780;SDS011;10050;55.492;13.506;2023-06-26T11:39:50;4.97;;;3.40;;
19780;SDS011;10050;55.492;13.506;2023-06-26T11:42:16;6.23;;;2.97;;
19780;SDS011;10050;55.492;13.506;2023-06-26T11:44:43;4.47;;;3.13;;
19780;SDS011;10050;55.492;13.506;2023-06-26T11:47:16;6.03;;;3.53;;
19780;SDS011;10050;55.492;13.506;2023-06-26T11:49:46;5.27;;;4.10;;
19780;SDS011;10050;55.492;13.506;2023-06-26T11:52:14;11.50;;;4.10;;
19780;SDS011;10050;55.492;13.506;2023-06-26T11:54:41;6.63;;;3.50;;
19780;SDS011;10050;55.492;13.506;2023-06-26T11:57:07;13.50;;;3.60;;
19780;SDS011;10050;55.492;13.506;2023-06-26T11:59:34;7.67;;;3.80;;
19780;SDS011;10050;55.492;13.506;2023-06-26T12:02:05;6.63;;;3.83;;
19780;SDS011;10050;55.492;13.506;2023-06-26T12:04:32;3.93;;;3.23;;
19780;SDS011;10050;55.492;13.506;2023-06-26T12:06:59;3.87;;;3.57;;
19780;SDS011;10050;55.492;13.506;2023-06-26T12:09:25;6.60;;;4.20;;
19780;SDS011;10050;55.492;13.506;2023-06-26T12:11:54;6.63;;;3.80;;
19780;SDS011;10050;55.492;13.506;2023-06-26T12:14:22;5.90;;;4.00;;
19780;SDS011;10050;55.492;13.506;2023-06-26T12:16:50;4.87;;;4.27;;
19780;SDS011;10050;55.492;13.506;2023-06-26T12:19:15;7.30;;;4.00;;
19780;SDS011;10050;55.492;13.506;2023-06-26T12:24:08;8.90;;;4.20;;
19780;SDS011;10050;55.492;13.506;2023-06-26T12:26:35;5.90;;;4.10;;
19780;SDS011;10050;55.492;13.506;2023-06-26T12:31:34;5.03;;;4.37;;
19780;SDS011;10050;55.492;13.506;2023-06-26T12:34:01;7.10;;;3.97;;
19780;SDS011;10050;55.492;13.506;2023-06-26T12:36:27;3.83;;;3.43;;
19780;SDS011;10050;55.492;13.506;2023-06-26T12:38:53;4.50;;;3.37;;
19780;SDS011;10050;55.492;13.506;2023-06-26T12:41:19;4.30;;;3.83;;
19780;SDS011;10050;55.492;13.506;2023-06-26T12:43:48;4.77;;;3.83;;
19780;SDS011;10050;55.492;13.506;2023-06-26T12:46:15;9.33;;;4.10;;
19780;SDS011;10050;55.492;13.506;2023-06-26T12:48:41;4.20;;;3.83;;
19780;SDS011;10050;55.492;13.506;2023-06-26T12:51:09;4.53;;;3.53;;
19780;SDS011;10050;55.492;13.506;2023-06-26T12:53:36;5.37;;;3.77;;
19780;SDS011;10050;55.492;13.506;2023-06-26T12:56:04;4.47;;;3.67;;
19780;SDS011;10050;55.492;13.506;2023-06-26T12:58:31;6.60;;;4.00;;
19780;SDS011;10050;55.492;13.506;2023-06-26T13:00:57;5.53;;;3.93;;
19780;SDS011;10050;55.492;13.506;2023-06-26T13:03:23;3.67;;;3.37;;
19780;SDS011;10050;55.492;13.506;2023-06-26T13:05:48;3.57;;;3.27;;
19780;SDS011;10050;55.492;13.506;2023-06-26T13:08:14;4.37;;;3.70;;
19780;SDS011;10050;55.492;13.506;2023-06-26T13:10:42;3.63;;;3.33;;
19780;SDS011;10050;55.492;13.506;2023-06-26T13:13:09;4.97;;;3.63;;
19780;SDS011;10050;55.492;13.506;2023-06-26T13:15:35;6.10;;;3.63;;
19780;SDS011;10050;55.492;13.506;2023-06-26T13:18:01;4.13;;;3.40;;
19780;SDS011;10050;55.492;13.506;2023-06-26T13:20:27;3.90;;;3.60;;
19780;SDS011;10050;55.492;13.506;2023-06-26T13:22:53;4.67;;;3.53;;
19780;SDS011;10050;55.492;13.506;2023-06-26T13:25:19;3.90;;;3.30;;
19780;SDS011;10050;55.492;13.506;2023-06-26T13:27:45;3.30;;;3.10;;
19780;SDS011;10050;55.492;13.506;2023-06-26T13:30:11;4.00;;;3.33;;
19780;SDS011;10050;55.492;13.506;2023-06-26T13:32:37;5.03;;;3.70;;
19780;SDS011;10050;55.492;13.506;2023-06-26T13:35:03;4.60;;;3.60;;
19780;SDS011;10050;55.492;13.506;2023-06-26T13:37:29;4.33;;;3.30;;
19780;SDS011;10050;55.492;13.506;2023-06-26T13:39:55;4.20;;;3.80;;
19780;SDS011;10050;55.492;13.506;2023-06-26T13:42:20;3.80;;;3.50;;
19780;SDS011;10050;55.492;13.506;2023-06-26T13:44:46;3.70;;;3.40;;
19780;SDS011;10050;55.492;13.506;2023-06-26T13:47:12;7.00;;;4.40;;
19780;SDS011;10050;55.492;13.506;2023-06-26T13:49:39;4.50;;;4.03;;
19780;SDS011;10050;55.492;13.506;2023-06-26T13:52:05;4.50;;;4.10;;
19780;SDS011;10050;55.492;13.506;2023-06-26T13:54:34;4.70;;;4.10;;
19780;SDS011;10050;55.492;13.506;2023-06-26T13:57:01;5.77;;;4.00;;
19780;SDS011;10050;55.492;13.506;2023-06-26T13:59:28;4.23;;;3.80;;
19780;SDS011;10050;55.492;13.506;2023-06-26T14:01:53;5.20;;;4.23;;
19780;SDS011;10050;55.492;13.506;2023-06-26T14:04:19;7.60;;;4.50;;
19780;SDS011;10050;55.492;13.506;2023-06-26T14:06:46;5.43;;;4.20;;
19780;SDS011;10050;55.492;13.506;2023-06-26T14:09:11;4.73;;;4.03;;
19780;SDS011;10050;55.492;13.506;2023-06-26T14:11:37;5.00;;;3.93;;
19780;SDS011;10050;55.492;13.506;2023-06-26T14:14:03;6.97;;;4.40;;
19780;SDS011;10050;55.492;13.506;2023-06-26T14:16:28;4.43;;;4.03;;
19780;SDS011;10050;55.492;13.506;2023-06-26T14:18:54;5.37;;;4.53;;
19780;SDS011;10050;55.492;13.506;2023-06-26T14:21:21;4.63;;;3.87;;
19780;SDS011;10050;55.492;13.506;2023-06-26T14:23:46;4.00;;;3.70;;
19780;SDS011;10050;55.492;13.506;2023-06-26T14:26:12;5.30;;;4.13;;
19780;SDS011;10050;55.492;13.506;2023-06-26T14:28:38;4.93;;;4.10;;
19780;SDS011;10050;55.492;13.506;2023-06-26T14:31:04;6.17;;;3.87;;
19780;SDS011;10050;55.492;13.506;2023-06-26T14:33:30;4.40;;;4.10;;
19780;SDS011;10050;55.492;13.506;2023-06-26T14:35:55;5.20;;;4.20;;
19780;SDS011;10050;55.492;13.506;2023-06-26T14:38:21;4.43;;;4.03;;
19780;SDS011;10050;55.492;13.506;2023-06-26T14:40:47;4.17;;;3.83;;
19780;SDS011;10050;55.492;13.506;2023-06-26T14:43:13;6.90;;;4.60;;
19780;SDS011;10050;55.492;13.506;2023-06-26T14:45:38;4.27;;;3.90;;
19780;SDS011;10050;55.492;13.506;2023-06-26T14:48:04;5.10;;;4.00;;
19780;SDS011;10050;55.492;13.506;2023-06-26T14:50:30;4.73;;;4.27;;
19780;SDS011;10050;55.492;13.506;2023-06-26T14:52:55;5.77;;;4.30;;
19780;SDS011;10050;55.492;13.506;2023-06-26T14:55:21;7.10;;;4.13;;